createdAt,value
2023-02-19T00:00:50.031Z,100326.00
2023-02-19T00:04:14.723Z,100322.37
2023-02-19T00:07:17.305Z,100330.38
2023-02-19T00:10:20.401Z,100333.53
2023-02-19T00:13:22.916Z,100324.50
2023-02-19T00:16:40.042Z,100323.41
2023-02-19T00:19:42.542Z,100324.31
2023-02-19T00:22:45.673Z,100319.06
2023-02-19T00:25:48.165Z,100319.03
2023-02-19T00:28:52.668Z,100311.84
2023-02-19T00:31:55.654Z,100315.53
2023-02-19T00:34:58.849Z,100315.44
2023-02-19T00:38:01.497Z,100310.84
2023-02-19T00:41:18.999Z,100310.06
2023-02-19T00:44:21.770Z,100312.88
2023-02-19T00:47:24.773Z,100308.37
2023-02-19T00:50:27.490Z,100310.97
2023-02-19T00:53:30.454Z,100312.81
2023-02-19T00:56:33.303Z,100323.06
2023-02-19T00:59:36.932Z,100323.88
2023-02-19T01:02:39.477Z,100321.34
2023-02-19T01:05:42.569Z,100325.69
2023-02-19T01:08:45.762Z,100322.06
2023-02-19T01:11:48.912Z,100322.31
2023-02-19T01:14:51.625Z,100324.81
2023-02-19T01:17:55.494Z,100314.75
2023-02-19T01:20:58.134Z,100318.72
2023-02-19T01:24:01.150Z,100302.41
2023-02-19T01:27:04.038Z,100306.09
2023-02-19T01:30:07.642Z,100312.97
2023-02-19T01:33:10.323Z,100314.91
2023-02-19T01:36:13.911Z,100301.97
2023-02-19T01:39:16.500Z,100302.72
2023-02-19T01:42:19.697Z,100314.91
2023-02-19T01:45:24.237Z,100320.88
2023-02-19T01:48:38.141Z,100323.78
2023-02-19T01:51:57.755Z,100319.94
2023-02-19T01:55:03.613Z,100310.31
2023-02-19T01:58:07.685Z,100305.75
2023-02-19T02:01:14.093Z,100309.13
2023-02-19T02:04:18.821Z,100306.94
2023-02-19T02:07:42.767Z,100296.38
2023-02-19T02:10:45.611Z,100288.84
2023-02-19T02:13:49.188Z,100284.75
2023-02-19T02:17:03.030Z,100289.97
2023-02-19T02:20:15.370Z,100302.97
2023-02-19T02:23:50.033Z,100297.75
2023-02-19T02:27:30.579Z,100274.00
2023-02-19T02:30:39.576Z,100279.03
2023-02-19T02:33:50.170Z,100277.44
2023-02-19T02:36:55.822Z,100264.16
2023-02-19T02:39:59.530Z,100270.06
2023-02-19T02:43:02.292Z,100275.28
2023-02-19T02:46:06.696Z,100277.81
2023-02-19T02:49:16.902Z,100286.62
2023-02-19T02:52:40.041Z,100287.25
2023-02-19T02:55:46.536Z,100290.94
2023-02-19T02:58:50.841Z,100294.37
2023-02-19T03:02:19.000Z,100301.28
2023-02-19T03:05:44.332Z,100304.81
2023-02-19T03:09:05.489Z,100308.22
2023-02-19T03:12:33.558Z,100312.97
2023-02-19T03:16:22.807Z,100302.66
2023-02-19T03:19:28.759Z,100301.25
2023-02-19T03:22:36.338Z,100300.56
2023-02-19T03:25:58.865Z,100303.38
2023-02-19T03:29:22.215Z,100298.66
2023-02-19T03:32:30.991Z,100311.75
2023-02-19T03:35:40.308Z,100321.34
2023-02-19T03:38:53.127Z,100316.06
2023-02-19T03:42:02.576Z,100306.09
2023-02-19T03:45:11.903Z,100299.56
2023-02-19T03:48:20.447Z,100309.34
2023-02-19T03:51:44.101Z,100319.38
2023-02-19T03:54:52.118Z,100321.66
2023-02-19T03:58:04.892Z,100321.38
2023-02-19T04:01:20.087Z,100313.44
2023-02-19T04:04:48.688Z,100309.03
2023-02-19T04:07:57.554Z,100304.19
2023-02-19T04:11:02.873Z,100306.78
2023-02-19T04:14:15.659Z,100308.00
2023-02-19T04:17:32.491Z,100309.59
2023-02-19T04:20:41.157Z,100313.88
2023-02-19T04:23:45.827Z,100311.28
2023-02-19T04:26:48.873Z,100312.78
2023-02-19T04:29:52.086Z,100311.75
2023-02-19T04:32:54.718Z,100310.12
2023-02-19T04:35:57.652Z,100315.28
2023-02-19T04:39:00.119Z,100313.28
2023-02-19T04:42:03.138Z,100305.34
2023-02-19T04:45:06.132Z,100313.06
2023-02-19T04:48:09.606Z,100313.78
2023-02-19T04:51:12.639Z,100292.94
2023-02-19T04:54:15.910Z,100308.47
2023-02-19T04:57:18.493Z,100310.94
2023-02-19T05:00:21.712Z,100312.56
2023-02-19T05:03:24.320Z,100299.53
2023-02-19T05:06:27.683Z,100300.56
2023-02-19T05:09:30.271Z,100297.84
2023-02-19T05:12:33.393Z,100292.56
2023-02-19T05:15:37.633Z,100300.34
2023-02-19T05:18:41.431Z,100303.41
2023-02-19T05:21:43.802Z,100291.41
2023-02-19T05:24:46.827Z,100298.63
2023-02-19T05:27:49.508Z,100305.66
2023-02-19T05:30:53.286Z,100309.22
2023-02-19T05:33:56.478Z,100310.47
2023-02-19T05:36:59.656Z,100303.81
2023-02-19T05:40:02.297Z,100301.19
2023-02-19T05:43:05.661Z,100305.97
2023-02-19T05:46:09.533Z,100304.94
2023-02-19T05:49:12.672Z,100296.28
2023-02-19T05:52:15.442Z,100295.41
2023-02-19T05:55:18.879Z,100299.09
2023-02-19T05:58:21.416Z,100303.16
2023-02-19T06:01:28.037Z,100309.03
2023-02-19T06:04:30.858Z,100317.69
2023-02-19T06:07:34.077Z,100321.50
2023-02-19T06:10:38.511Z,100320.88
2023-02-19T06:13:41.343Z,100312.38
2023-02-19T06:16:44.336Z,100323.69
2023-02-19T06:19:47.225Z,100317.25
2023-02-19T06:22:51.027Z,100312.69
2023-02-19T06:25:53.901Z,100305.03
2023-02-19T06:28:56.789Z,100304.44
2023-02-19T06:32:01.058Z,100305.84
2023-02-19T06:35:04.691Z,100302.66
2023-02-19T06:38:07.592Z,100307.87
2023-02-19T06:41:11.836Z,100306.19
2023-02-19T06:44:15.080Z,100289.50
2023-02-19T06:47:18.008Z,100286.50
2023-02-19T06:50:20.802Z,100290.81
2023-02-19T06:53:24.405Z,100282.78
2023-02-19T06:56:32.713Z,100305.78
2023-02-19T06:59:35.534Z,100307.09
2023-02-19T07:02:38.430Z,100300.97
2023-02-19T07:05:41.447Z,100301.34
2023-02-19T07:08:44.779Z,100297.06
2023-02-19T07:11:47.711Z,100304.53
2023-02-19T07:14:50.521Z,100300.50
2023-02-19T07:17:53.394Z,100306.53
2023-02-19T07:21:01.732Z,100317.91
2023-02-19T07:24:05.828Z,100312.81
2023-02-19T07:27:08.818Z,100304.06
2023-02-19T07:30:11.958Z,100297.06
2023-02-19T07:33:14.910Z,100297.91
2023-02-19T07:36:21.520Z,100289.78
2023-02-19T07:39:24.776Z,100283.56
2023-02-19T07:42:27.709Z,100280.84
2023-02-19T07:45:30.635Z,100282.28
2023-02-19T07:48:35.380Z,100284.03
2023-02-19T07:51:39.925Z,100286.56
2023-02-19T07:54:42.802Z,100291.37
2023-02-19T07:57:45.643Z,100308.53
2023-02-19T08:00:48.610Z,100299.31
2023-02-19T08:03:51.743Z,100308.66
2023-02-19T08:06:54.262Z,100315.50
2023-02-19T08:10:17.371Z,100309.78
2023-02-19T08:13:22.654Z,100319.91
2023-02-19T08:16:40.769Z,100322.84
2023-02-19T08:19:45.297Z,100327.91
2023-02-19T08:22:51.051Z,100318.63
2023-02-19T08:25:57.367Z,100329.53
2023-02-19T08:29:00.525Z,100327.97
2023-02-19T08:32:03.133Z,100336.97
2023-02-19T08:35:06.566Z,100349.03
2023-02-19T08:41:14.802Z,100341.22
2023-02-19T08:44:17.503Z,100324.16
2023-02-19T08:47:20.643Z,100320.75
2023-02-19T08:50:23.271Z,100314.69
2023-02-19T08:53:26.809Z,100317.19
2023-02-19T08:56:29.372Z,100323.69
2023-02-19T08:59:32.468Z,100316.84
2023-02-19T09:02:35.752Z,100320.22
2023-02-19T09:05:39.863Z,100306.88
2023-02-19T09:08:42.615Z,100299.56
2023-02-19T09:11:47.820Z,100316.59
2023-02-19T09:14:51.698Z,100320.44
2023-02-19T09:17:54.797Z,100315.37
2023-02-19T09:21:01.646Z,100299.56
2023-02-19T09:24:05.126Z,100301.09
2023-02-19T09:27:07.725Z,100296.91
2023-02-19T09:30:10.977Z,100307.44
2023-02-19T09:33:13.446Z,100294.56
2023-02-19T09:36:18.678Z,100287.94
2023-02-19T09:39:21.489Z,100292.66
2023-02-19T09:42:29.973Z,100273.81
2023-02-19T09:45:34.840Z,100276.34
2023-02-19T09:48:38.040Z,100276.31
2023-02-19T09:51:44.872Z,100272.00
2023-02-19T09:54:48.226Z,100266.59
2023-02-19T09:57:51.956Z,100271.13
2023-02-19T10:00:57.049Z,100264.88
2023-02-19T10:04:00.396Z,100254.59
2023-02-19T10:07:03.869Z,100261.03
2023-02-19T10:10:24.481Z,100247.91
2023-02-19T10:13:30.414Z,100235.34
2023-02-19T10:16:34.242Z,100225.47
2023-02-19T10:19:37.109Z,100219.28
2023-02-19T10:22:40.007Z,100225.69
2023-02-19T10:26:12.227Z,100216.19
2023-02-19T10:29:15.105Z,100212.19
2023-02-19T10:32:23.972Z,100189.44
2023-02-19T10:35:27.082Z,100192.97
2023-02-19T10:38:31.862Z,100180.66
2023-02-19T10:41:43.110Z,100175.38
2023-02-19T10:44:55.547Z,100162.03
2023-02-19T10:47:58.602Z,100169.75
2023-02-19T10:51:13.424Z,100160.03
2023-02-19T10:54:21.949Z,100147.00
2023-02-19T10:57:31.317Z,100154.09
2023-02-19T11:00:34.186Z,100132.09
2023-02-19T11:03:36.976Z,100135.72
2023-02-19T11:06:40.178Z,100118.13
2023-02-19T11:09:49.536Z,100111.09
2023-02-19T11:12:55.391Z,100102.22
2023-02-19T11:16:00.053Z,100100.28
2023-02-19T11:19:03.014Z,100088.47
2023-02-19T11:22:47.053Z,100085.72
2023-02-19T11:25:53.076Z,100100.50
2023-02-19T11:29:16.733Z,100073.69
2023-02-19T11:32:29.701Z,100072.75
2023-02-19T11:35:32.440Z,100078.34
2023-02-19T11:38:35.496Z,100072.50
2023-02-19T11:41:41.043Z,100065.44
2023-02-19T11:45:11.115Z,100053.78
2023-02-19T11:48:45.378Z,100056.28
2023-02-19T11:51:57.246Z,100051.44
2023-02-19T11:55:09.083Z,100031.69
2023-02-19T11:58:43.236Z,100029.81
2023-02-19T12:02:12.000Z,100035.84
2023-02-19T12:05:39.778Z,100027.81
2023-02-19T12:09:04.703Z,100021.09
2023-02-19T12:12:40.727Z,100021.81
2023-02-19T12:16:17.809Z,100003.78
2023-02-19T12:19:37.024Z,100012.63
2023-02-19T12:22:57.699Z,100017.63
2023-02-19T12:26:06.690Z,100007.94
2023-02-19T12:29:32.235Z,100014.25
2023-02-19T12:32:47.742Z,100013.87
2023-02-19T12:36:02.980Z,100005.94
2023-02-19T12:39:24.047Z,100024.69
2023-02-19T12:42:51.745Z,100029.16
2023-02-19T12:46:21.554Z,100035.19
2023-02-19T12:49:31.739Z,100018.81
2023-02-19T12:52:41.027Z,100041.72
2023-02-19T12:55:46.660Z,100068.16
2023-02-19T12:58:55.303Z,100078.13
2023-02-19T13:02:24.010Z,100062.22
2023-02-19T13:05:49.948Z,100097.84
2023-02-19T13:09:06.474Z,100060.84
2023-02-19T13:12:39.131Z,100064.13
2023-02-19T13:15:45.433Z,100060.25
2023-02-19T13:18:58.839Z,100051.28
2023-02-19T13:23:04.453Z,100051.91
2023-02-19T13:26:22.256Z,100061.50
2023-02-19T13:29:31.497Z,100064.09
2023-02-19T13:33:02.535Z,100051.25
2023-02-19T13:36:14.505Z,100042.62
2023-02-19T13:39:20.755Z,100036.94
2023-02-19T13:42:36.883Z,100042.53
2023-02-19T13:45:43.934Z,100072.09
2023-02-19T13:48:46.948Z,100086.56
2023-02-19T13:51:55.440Z,100081.44
2023-02-19T13:55:40.761Z,100089.94
2023-02-19T13:59:00.198Z,100092.44
2023-02-19T14:02:04.566Z,100122.75
2023-02-19T14:05:10.327Z,100115.97
2023-02-19T14:08:16.184Z,100116.31
2023-02-19T14:11:41.884Z,100124.47
2023-02-19T14:14:45.568Z,100131.06
2023-02-19T14:17:48.690Z,100142.59
2023-02-19T14:21:17.084Z,100147.34
2023-02-19T14:24:20.395Z,100159.34
2023-02-19T14:27:23.784Z,100178.91
2023-02-19T14:30:28.188Z,100185.63
2023-02-19T14:33:34.382Z,100192.44
2023-02-19T14:36:55.152Z,100205.50
2023-02-19T14:39:58.988Z,100200.34
2023-02-19T14:43:04.657Z,100206.53
2023-02-19T14:46:28.130Z,100215.72
2023-02-19T14:49:36.745Z,100219.47
2023-02-19T14:52:45.769Z,100221.13
2023-02-19T14:55:50.630Z,100214.91
2023-02-19T14:59:09.759Z,100208.69
2023-02-19T15:02:17.392Z,100212.72
2023-02-19T15:05:29.630Z,100213.28
2023-02-19T15:08:43.822Z,100215.56
2023-02-19T15:11:47.041Z,100218.75
2023-02-19T15:14:51.211Z,100220.78
2023-02-19T15:17:55.519Z,100234.00
2023-02-19T15:21:02.562Z,100234.72
2023-02-19T15:24:08.977Z,100237.66
2023-02-19T15:27:19.134Z,100236.53
2023-02-19T15:30:31.357Z,100235.41
2023-02-19T15:33:34.977Z,100230.13
2023-02-19T15:36:37.919Z,100219.44
2023-02-19T15:39:46.627Z,100211.41
2023-02-19T15:42:52.309Z,100200.13
2023-02-19T15:45:57.853Z,100213.03
2023-02-19T15:49:22.039Z,100209.00
2023-02-19T15:52:59.366Z,100211.62
2023-02-19T15:56:16.932Z,100207.88
2023-02-19T15:59:31.966Z,100218.31
2023-02-19T16:02:36.070Z,100229.78
2023-02-19T16:05:41.811Z,100230.84
2023-02-19T16:08:47.022Z,100243.59
2023-02-19T16:11:53.219Z,100251.34
2023-02-19T16:14:56.201Z,100247.34
2023-02-19T16:17:59.556Z,100255.81
2023-02-19T16:21:08.080Z,100256.69
2023-02-19T16:24:22.862Z,100255.44
2023-02-19T16:27:42.411Z,100265.19
2023-02-19T16:30:45.474Z,100265.25
2023-02-19T16:33:50.079Z,100278.25
2023-02-19T16:36:53.180Z,100282.53
2023-02-19T16:40:08.534Z,100302.03
2023-02-19T16:43:14.463Z,100312.41
2023-02-19T16:46:17.517Z,100310.94
2023-02-19T16:49:22.660Z,100314.75
2023-02-19T16:52:26.603Z,100301.22
2023-02-19T16:55:32.646Z,100296.03
2023-02-19T16:58:35.493Z,100289.50
2023-02-19T17:01:38.805Z,100296.25
2023-02-19T17:04:41.633Z,100299.94
2023-02-19T17:07:44.401Z,100306.03
2023-02-19T17:10:47.439Z,100314.59
2023-02-19T17:13:50.605Z,100331.78
2023-02-19T17:16:53.692Z,100330.78
2023-02-19T17:19:56.620Z,100338.28
2023-02-19T17:22:59.482Z,100319.53
2023-02-19T17:26:02.822Z,100328.97
2023-02-19T17:29:08.477Z,100314.87
2023-02-19T17:32:11.745Z,100337.06
2023-02-19T17:35:14.882Z,100329.34
2023-02-19T17:38:18.922Z,100356.41
2023-02-19T17:41:22.062Z,100338.97
2023-02-19T17:44:25.048Z,100362.50
2023-02-19T17:47:28.178Z,100361.69
2023-02-19T17:50:32.720Z,100367.34
2023-02-19T17:53:35.650Z,100372.50
2023-02-19T17:56:44.013Z,100376.59
2023-02-19T17:59:46.943Z,100389.19
2023-02-19T18:02:49.866Z,100390.56
2023-02-19T18:05:52.999Z,100385.00
2023-02-19T18:08:55.754Z,100398.25
2023-02-19T18:11:59.021Z,100397.31
2023-02-19T18:15:02.263Z,100397.19
2023-02-19T18:18:05.584Z,100408.59
2023-02-19T18:21:10.138Z,100418.91
2023-02-19T18:24:14.094Z,100424.28
2023-02-19T18:27:18.843Z,100421.62
2023-02-19T18:30:23.928Z,100448.47
2023-02-19T18:33:27.196Z,100448.72
2023-02-19T18:36:33.003Z,100451.81
2023-02-19T18:39:35.702Z,100467.66
2023-02-19T18:42:39.931Z,100477.75
2023-02-19T18:45:43.400Z,100482.28
2023-02-19T18:48:46.896Z,100499.38
2023-02-19T18:51:49.721Z,100493.50
2023-02-19T18:54:57.321Z,100502.91
2023-02-19T18:58:00.035Z,100516.41
2023-02-19T19:01:03.380Z,100524.28
2023-02-19T19:04:06.807Z,100536.09
2023-02-19T19:07:10.874Z,100522.75
2023-02-19T19:10:14.952Z,100540.59
2023-02-19T19:13:18.231Z,100547.62
2023-02-19T19:16:29.118Z,100547.41
2023-02-19T19:19:32.464Z,100545.06
2023-02-19T19:22:35.154Z,100530.91
2023-02-19T19:25:38.272Z,100528.28
2023-02-19T19:28:44.487Z,100525.37
2023-02-19T19:31:51.205Z,100514.81
2023-02-19T19:34:54.167Z,100521.34
2023-02-19T19:38:00.553Z,100519.47
2023-02-19T19:41:06.669Z,100511.56
2023-02-19T19:44:12.456Z,100518.31
2023-02-19T19:47:15.122Z,100514.03
2023-02-19T19:50:18.777Z,100542.00
2023-02-19T19:53:21.462Z,100546.69
2023-02-19T19:56:24.669Z,100543.50
2023-02-19T19:59:27.466Z,100550.56
2023-02-19T20:02:30.721Z,100554.56
2023-02-19T20:05:33.706Z,100563.88
2023-02-19T20:08:36.673Z,100568.13
2023-02-19T20:11:51.317Z,100580.19
2023-02-19T20:14:54.262Z,100593.69
2023-02-19T20:17:57.962Z,100609.53
2023-02-19T20:21:03.674Z,100619.94
2023-02-19T20:24:07.121Z,100638.97
2023-02-19T20:27:10.164Z,100643.09
2023-02-19T20:30:15.500Z,100648.97
2023-02-19T20:33:18.810Z,100664.53
2023-02-19T20:36:22.044Z,100672.09
2023-02-19T20:39:29.101Z,100681.09
2023-02-19T20:42:32.211Z,100687.66
2023-02-19T20:45:37.271Z,100690.69
2023-02-19T20:48:40.198Z,100697.69
2023-02-19T20:51:55.190Z,100711.59
2023-02-19T20:54:58.085Z,100713.31
2023-02-19T20:58:00.946Z,100734.53
2023-02-19T21:01:04.089Z,100716.41
2023-02-19T21:04:07.179Z,100720.09
2023-02-19T21:07:10.085Z,100725.97
2023-02-19T21:10:13.571Z,100732.16
2023-02-19T21:13:16.439Z,100736.75
2023-02-19T21:16:19.472Z,100731.41
2023-02-19T21:19:22.442Z,100735.50
2023-02-19T21:22:25.428Z,100731.31
2023-02-19T21:25:28.954Z,100736.97
2023-02-19T21:28:31.905Z,100742.03
2023-02-19T21:31:40.219Z,100750.19
2023-02-19T21:34:43.289Z,100742.16
2023-02-19T21:37:46.548Z,100751.59
2023-02-19T21:40:50.773Z,100755.09
2023-02-19T21:43:55.182Z,100757.72
2023-02-19T21:46:58.103Z,100750.53
2023-02-19T21:50:01.110Z,100747.75
2023-02-19T21:53:05.670Z,100752.50
2023-02-19T21:56:08.900Z,100737.41
2023-02-19T21:59:12.372Z,100740.62
2023-02-19T22:02:15.436Z,100756.06
2023-02-19T22:05:18.981Z,100738.16
2023-02-19T22:08:21.819Z,100740.72
2023-02-19T22:11:25.272Z,100745.66
2023-02-19T22:14:27.856Z,100758.97
2023-02-19T22:17:31.145Z,100759.13
2023-02-19T22:20:34.755Z,100753.81
2023-02-19T22:23:38.004Z,100762.56
2023-02-19T22:26:40.783Z,100766.78
2023-02-19T22:29:43.888Z,100783.28
2023-02-19T22:32:46.393Z,100774.50
2023-02-19T22:35:52.186Z,100777.09
2023-02-19T22:38:54.877Z,100792.50
2023-02-19T22:41:58.149Z,100789.03
2023-02-19T22:45:00.943Z,100810.78
2023-02-19T22:48:04.036Z,100808.81
2023-02-19T22:51:13.376Z,100813.91
2023-02-19T22:54:16.996Z,100817.22
2023-02-19T22:57:19.612Z,100834.56
2023-02-19T23:00:23.150Z,100832.25
2023-02-19T23:03:26.008Z,100843.78
2023-02-19T23:06:32.081Z,100848.00
2023-02-19T23:09:37.830Z,100857.53
2023-02-19T23:12:41.246Z,100852.91
2023-02-19T23:15:43.712Z,100865.50
2023-02-19T23:18:47.014Z,100874.63
2023-02-19T23:21:49.911Z,100872.69
2023-02-19T23:24:53.078Z,100895.56
2023-02-19T23:27:55.595Z,100887.50
2023-02-19T23:30:58.914Z,100890.38
2023-02-19T23:34:02.382Z,100894.75
2023-02-19T23:37:06.705Z,100914.19
2023-02-19T23:40:10.093Z,100910.59
2023-02-19T23:43:13.263Z,100910.44
2023-02-19T23:46:17.847Z,100926.78
2023-02-19T23:49:21.485Z,100921.00
2023-02-19T23:52:24.163Z,100934.56
2023-02-19T23:55:27.792Z,100930.06
2023-02-19T23:58:30.350Z,100943.75
